sensor_id;sensor_type;location;lat;lon;timestamp;P1;durP1;ratioP1;P2;durP2;ratioP2
59474;SDS011;45288;51.136;16.928;2023-06-14T00:01:03;1079.57;;;999.90;;
59474;SDS011;45288;51.136;16.928;2023-06-14T00:03:34;965.20;;;900.40;;
59474;SDS011;45288;51.136;16.928;2023-06-14T00:05:59;906.77;;;845.20;;
59474;SDS011;45288;51.136;16.928;2023-06-14T00:08:25;918.05;;;856.03;;
59474;SDS011;45288;51.136;16.928;2023-06-14T00:10:51;906.85;;;845.80;;
59474;SDS011;45288;51.136;16.928;2023-06-14T00:13:17;905.63;;;843.70;;
59474;SDS011;45288;51.136;16.928;2023-06-14T00:15:43;905.08;;;843.53;;
59474;SDS011;45288;51.136;16.928;2023-06-14T00:18:09;899.25;;;838.42;;
59474;SDS011;45288;51.136;16.928;2023-06-14T00:20:37;943.33;;;880.15;;
59474;SDS011;45288;51.136;16.928;2023-06-14T00:23:02;957.43;;;893.47;;
59474;SDS011;45288;51.136;16.928;2023-06-14T00:25:28;1020.65;;;953.13;;
59474;SDS011;45288;51.136;16.928;2023-06-14T00:28:12;1027.30;;;959.33;;
59474;SDS011;45288;51.136;16.928;2023-06-14T00:30:38;1022.20;;;954.33;;
59474;SDS011;45288;51.136;16.928;2023-06-14T00:33:03;1023.07;;;954.77;;
59474;SDS011;45288;51.136;16.928;2023-06-14T00:35:29;1016.60;;;949.15;;
59474;SDS011;45288;51.136;16.928;2023-06-14T00:37:56;1031.47;;;962.95;;
59474;SDS011;45288;51.136;16.928;2023-06-14T00:40:22;1065.17;;;993.33;;
59474;SDS011;45288;51.136;16.928;2023-06-14T00:42:48;1069.00;;;996.55;;
59474;SDS011;45288;51.136;16.928;2023-06-14T00:45:15;1078.95;;;999.90;;
59474;SDS011;45288;51.136;16.928;2023-06-14T00:47:41;1067.82;;;991.50;;
59474;SDS011;45288;51.136;16.928;2023-06-14T00:50:08;1065.03;;;991.45;;
59474;SDS011;45288;51.136;16.928;2023-06-14T00:52:34;1069.00;;;991.45;;
59474;SDS011;45288;51.136;16.928;2023-06-14T00:55:01;1071.88;;;994.42;;
59474;SDS011;45288;51.136;16.928;2023-06-14T00:57:28;1065.93;;;990.28;;
59474;SDS011;45288;51.136;16.928;2023-06-14T00:59:57;1064.93;;;989.23;;
59474;SDS011;45288;51.136;16.928;2023-06-14T01:02:23;1063.53;;;986.58;;
59474;SDS011;45288;51.136;16.928;2023-06-14T01:04:49;1062.50;;;983.93;;
59474;SDS011;45288;51.136;16.928;2023-06-14T01:12:21;1049.30;;;968.75;;
59474;SDS011;45288;51.136;16.928;2023-06-14T01:14:49;1040.88;;;963.03;;
59474;SDS011;45288;51.136;16.928;2023-06-14T01:17:18;1049.75;;;972.75;;
59474;SDS011;45288;51.136;16.928;2023-06-14T01:19:47;1039.72;;;960.00;;
59474;SDS011;45288;51.136;16.928;2023-06-14T01:22:13;1042.03;;;970.63;;
59474;SDS011;45288;51.136;16.928;2023-06-14T01:24:40;1044.40;;;971.67;;
59474;SDS011;45288;51.136;16.928;2023-06-14T01:27:10;1042.87;;;968.70;;
59474;SDS011;45288;51.136;16.928;2023-06-14T01:29:37;1033.68;;;959.17;;
59474;SDS011;45288;51.136;16.928;2023-06-14T01:32:04;1031.97;;;959.30;;
59474;SDS011;45288;51.136;16.928;2023-06-14T01:34:30;1037.13;;;961.70;;
59474;SDS011;45288;51.136;16.928;2023-06-14T01:36:57;1037.32;;;965.65;;
59474;SDS011;45288;51.136;16.928;2023-06-14T01:39:23;1040.90;;;966.53;;
59474;SDS011;45288;51.136;16.928;2023-06-14T01:41:49;1048.63;;;971.30;;
59474;SDS011;45288;51.136;16.928;2023-06-14T01:44:16;1047.80;;;969.33;;
59474;SDS011;45288;51.136;16.928;2023-06-14T01:46:43;1046.10;;;975.30;;
59474;SDS011;45288;51.136;16.928;2023-06-14T01:49:09;1038.83;;;969.83;;
59474;SDS011;45288;51.136;16.928;2023-06-14T01:51:34;1035.15;;;966.50;;
59474;SDS011;45288;51.136;16.928;2023-06-14T01:54:00;1035.13;;;966.60;;
59474;SDS011;45288;51.136;16.928;2023-06-14T01:56:26;1045.53;;;976.30;;
59474;SDS011;45288;51.136;16.928;2023-06-14T01:58:52;1055.73;;;979.37;;
59474;SDS011;45288;51.136;16.928;2023-06-14T02:01:19;984.67;;;919.20;;
59474;SDS011;45288;51.136;16.928;2023-06-14T02:03:47;983.08;;;918.10;;
59474;SDS011;45288;51.136;16.928;2023-06-14T02:06:15;1055.82;;;981.35;;
59474;SDS011;45288;51.136;16.928;2023-06-14T02:08:44;1063.95;;;988.20;;
59474;SDS011;45288;51.136;16.928;2023-06-14T02:11:10;1002.65;;;935.85;;
59474;SDS011;45288;51.136;16.928;2023-06-14T02:13:36;938.38;;;875.50;;
59474;SDS011;45288;51.136;16.928;2023-06-14T02:16:01;1058.90;;;987.20;;
59474;SDS011;45288;51.136;16.928;2023-06-14T02:18:28;999.92;;;933.72;;
59474;SDS011;45288;51.136;16.928;2023-06-14T02:20:55;1007.40;;;940.63;;
59474;SDS011;45288;51.136;16.928;2023-06-14T02:23:21;912.30;;;850.43;;
59474;SDS011;45288;51.136;16.928;2023-06-14T02:25:47;839.13;;;782.38;;
59474;SDS011;45288;51.136;16.928;2023-06-14T02:28:12;827.67;;;771.37;;
59474;SDS011;45288;51.136;16.928;2023-06-14T02:30:38;866.67;;;808.07;;
59474;SDS011;45288;51.136;16.928;2023-06-14T02:33:04;839.58;;;782.35;;
59474;SDS011;45288;51.136;16.928;2023-06-14T02:35:31;854.00;;;796.15;;
59474;SDS011;45288;51.136;16.928;2023-06-14T02:37:57;850.03;;;792.75;;
59474;SDS011;45288;51.136;16.928;2023-06-14T02:40:22;888.83;;;828.90;;
59474;SDS011;45288;51.136;16.928;2023-06-14T02:42:49;843.00;;;786.13;;
59474;SDS011;45288;51.136;16.928;2023-06-14T02:45:16;867.60;;;808.28;;
59474;SDS011;45288;51.136;16.928;2023-06-14T02:47:42;897.63;;;837.55;;
59474;SDS011;45288;51.136;16.928;2023-06-14T02:50:08;934.35;;;871.85;;
59474;SDS011;45288;51.136;16.928;2023-06-14T02:52:34;788.53;;;734.05;;
59474;SDS011;45288;51.136;16.928;2023-06-14T02:55:00;810.90;;;754.80;;
59474;SDS011;45288;51.136;16.928;2023-06-14T02:57:26;791.53;;;736.60;;
59474;SDS011;45288;51.136;16.928;2023-06-14T02:59:51;816.20;;;759.67;;
59474;SDS011;45288;51.136;16.928;2023-06-14T03:02:18;808.22;;;751.72;;
59474;SDS011;45288;51.136;16.928;2023-06-14T03:04:44;806.25;;;750.03;;
59474;SDS011;45288;51.136;16.928;2023-06-14T03:07:14;776.67;;;722.05;;
59474;SDS011;45288;51.136;16.928;2023-06-14T03:09:45;800.10;;;744.88;;
59474;SDS011;45288;51.136;16.928;2023-06-14T03:12:11;805.73;;;749.73;;
59474;SDS011;45288;51.136;16.928;2023-06-14T03:14:37;958.05;;;894.30;;
59474;SDS011;45288;51.136;16.928;2023-06-14T03:17:04;865.83;;;806.50;;
59474;SDS011;45288;51.136;16.928;2023-06-14T03:19:32;791.17;;;736.33;;
59474;SDS011;45288;51.136;16.928;2023-06-14T03:21:58;813.33;;;757.57;;
59474;SDS011;45288;51.136;16.928;2023-06-14T03:24:26;824.22;;;767.67;;
59474;SDS011;45288;51.136;16.928;2023-06-14T03:26:56;797.60;;;742.97;;
59474;SDS011;45288;51.136;16.928;2023-06-14T03:29:24;902.17;;;841.80;;
59474;SDS011;45288;51.136;16.928;2023-06-14T03:31:58;867.03;;;808.70;;
59474;SDS011;45288;51.136;16.928;2023-06-14T03:34:32;964.63;;;900.83;;
59474;SDS011;45288;51.136;16.928;2023-06-14T03:36:58;912.28;;;851.45;;
59474;SDS011;45288;51.136;16.928;2023-06-14T03:39:24;919.35;;;858.05;;
59474;SDS011;45288;51.136;16.928;2023-06-14T03:41:50;909.73;;;849.50;;
59474;SDS011;45288;51.136;16.928;2023-06-14T03:44:16;804.25;;;748.78;;
59474;SDS011;45288;51.136;16.928;2023-06-14T03:46:43;801.75;;;746.72;;
59474;SDS011;45288;51.136;16.928;2023-06-14T03:49:09;803.97;;;747.88;;
59474;SDS011;45288;51.136;16.928;2023-06-14T03:51:36;792.63;;;738.30;;
59474;SDS011;45288;51.136;16.928;2023-06-14T03:54:02;803.53;;;747.70;;
59474;SDS011;45288;51.136;16.928;2023-06-14T03:56:27;808.72;;;752.58;;
59474;SDS011;45288;51.136;16.928;2023-06-14T03:58:53;818.30;;;762.43;;
59474;SDS011;45288;51.136;16.928;2023-06-14T04:01:23;820.80;;;763.80;;
59474;SDS011;45288;51.136;16.928;2023-06-14T04:03:57;813.60;;;757.38;;
59474;SDS011;45288;51.136;16.928;2023-06-14T04:06:25;857.85;;;798.58;;
59474;SDS011;45288;51.136;16.928;2023-06-14T04:09:01;847.53;;;788.95;;
59474;SDS011;45288;51.136;16.928;2023-06-14T04:11:27;860.58;;;801.08;;
59474;SDS011;45288;51.136;16.928;2023-06-14T04:13:54;859.78;;;800.55;;
59474;SDS011;45288;51.136;16.928;2023-06-14T04:16:22;876.13;;;815.17;;
59474;SDS011;45288;51.136;16.928;2023-06-14T04:18:48;879.43;;;819.17;;
59474;SDS011;45288;51.136;16.928;2023-06-14T04:21:17;886.05;;;825.30;;
59474;SDS011;45288;51.136;16.928;2023-06-14T04:23:43;899.83;;;838.87;;
59474;SDS011;45288;51.136;16.928;2023-06-14T04:26:11;900.78;;;839.38;;
59474;SDS011;45288;51.136;16.928;2023-06-14T04:28:39;899.05;;;838.20;;
59474;SDS011;45288;51.136;16.928;2023-06-14T04:31:06;895.63;;;834.85;;
59474;SDS011;45288;51.136;16.928;2023-06-14T04:33:35;914.05;;;851.97;;
59474;SDS011;45288;51.136;16.928;2023-06-14T04:36:10;959.63;;;894.95;;
59474;SDS011;45288;51.136;16.928;2023-06-14T04:38:37;968.10;;;902.90;;
59474;SDS011;45288;51.136;16.928;2023-06-14T04:41:03;973.58;;;907.72;;
59474;SDS011;45288;51.136;16.928;2023-06-14T04:43:31;890.65;;;828.83;;
59474;SDS011;45288;51.136;16.928;2023-06-14T04:46:02;866.13;;;805.67;;
59474;SDS011;45288;51.136;16.928;2023-06-14T04:48:30;847.00;;;787.23;;
59474;SDS011;45288;51.136;16.928;2023-06-14T04:50:56;850.85;;;791.20;;
59474;SDS011;45288;51.136;16.928;2023-06-14T04:53:22;831.47;;;772.30;;
59474;SDS011;45288;51.136;16.928;2023-06-14T04:55:53;818.77;;;760.57;;
59474;SDS011;45288;51.136;16.928;2023-06-14T04:58:21;818.15;;;760.00;;
59474;SDS011;45288;51.136;16.928;2023-06-14T05:00:46;808.00;;;750.27;;
59474;SDS011;45288;51.136;16.928;2023-06-14T05:03:13;810.40;;;752.93;;
59474;SDS011;45288;51.136;16.928;2023-06-14T05:05:40;806.58;;;749.60;;
59474;SDS011;45288;51.136;16.928;2023-06-14T05:08:06;795.95;;;739.17;;
59474;SDS011;45288;51.136;16.928;2023-06-14T05:10:32;817.42;;;759.15;;
59474;SDS011;45288;51.136;16.928;2023-06-14T05:13:00;809.55;;;752.38;;
59474;SDS011;45288;51.136;16.928;2023-06-14T05:15:26;858.03;;;797.25;;
59474;SDS011;45288;51.136;16.928;2023-06-14T05:17:52;847.57;;;787.73;;
59474;SDS011;45288;51.136;16.928;2023-06-14T05:20:21;842.37;;;782.57;;
59474;SDS011;45288;51.136;16.928;2023-06-14T05:22:48;823.37;;;764.93;;
59474;SDS011;45288;51.136;16.928;2023-06-14T05:25:17;838.28;;;778.13;;
59474;SDS011;45288;51.136;16.928;2023-06-14T05:27:43;826.80;;;767.93;;
59474;SDS011;45288;51.136;16.928;2023-06-14T05:30:08;862.10;;;800.42;;
59474;SDS011;45288;51.136;16.928;2023-06-14T05:32:34;938.83;;;871.80;;
59474;SDS011;45288;51.136;16.928;2023-06-14T05:35:00;962.50;;;894.90;;
59474;SDS011;45288;51.136;16.928;2023-06-14T05:37:26;984.30;;;915.45;;
59474;SDS011;45288;51.136;16.928;2023-06-14T05:39:51;1005.00;;;935.40;;
59474;SDS011;45288;51.136;16.928;2023-06-14T05:42:17;1085.45;;;999.90;;
59474;SDS011;45288;51.136;16.928;2023-06-14T05:44:43;1160.70;;;999.90;;
59474;SDS011;45288;51.136;16.928;2023-06-14T05:47:08;1119.70;;;999.90;;
59474;SDS011;45288;51.136;16.928;2023-06-14T05:49:34;1155.47;;;999.90;;
59474;SDS011;45288;51.136;16.928;2023-06-14T05:52:00;1115.03;;;999.90;;
59474;SDS011;45288;51.136;16.928;2023-06-14T05:54:26;1118.03;;;999.90;;
59474;SDS011;45288;51.136;16.928;2023-06-14T05:56:51;1104.38;;;999.90;;
59474;SDS011;45288;51.136;16.928;2023-06-14T05:59:17;1064.73;;;991.07;;
59474;SDS011;45288;51.136;16.928;2023-06-14T06:01:43;1089.88;;;999.90;;
59474;SDS011;45288;51.136;16.928;2023-06-14T06:04:09;1154.70;;;999.90;;
59474;SDS011;45288;51.136;16.928;2023-06-14T06:06:35;1163.13;;;999.90;;
59474;SDS011;45288;51.136;16.928;2023-06-14T06:09:01;1164.18;;;999.90;;
59474;SDS011;45288;51.136;16.928;2023-06-14T06:11:27;1175.15;;;999.90;;
59474;SDS011;45288;51.136;16.928;2023-06-14T06:13:53;1175.72;;;999.90;;
59474;SDS011;45288;51.136;16.928;2023-06-14T06:16:19;1172.20;;;999.90;;
59474;SDS011;45288;51.136;16.928;2023-06-14T06:18:45;1171.33;;;999.90;;
59474;SDS011;45288;51.136;16.928;2023-06-14T06:21:10;1189.53;;;999.90;;
59474;SDS011;45288;51.136;16.928;2023-06-14T06:23:36;1177.45;;;999.90;;
59474;SDS011;45288;51.136;16.928;2023-06-14T06:26:02;1176.13;;;999.90;;
59474;SDS011;45288;51.136;16.928;2023-06-14T06:28:28;1174.90;;;999.90;;
59474;SDS011;45288;51.136;16.928;2023-06-14T06:30:54;1172.05;;;999.90;;
59474;SDS011;45288;51.136;16.928;2023-06-14T06:33:20;1174.72;;;999.90;;
59474;SDS011;45288;51.136;16.928;2023-06-14T06:35:45;1177.53;;;999.90;;
59474;SDS011;45288;51.136;16.928;2023-06-14T06:38:11;1173.03;;;999.90;;
59474;SDS011;45288;51.136;16.928;2023-06-14T06:40:37;1179.55;;;999.90;;
59474;SDS011;45288;51.136;16.928;2023-06-14T06:43:03;1170.15;;;999.90;;
59474;SDS011;45288;51.136;16.928;2023-06-14T06:45:28;1172.78;;;999.90;;
59474;SDS011;45288;51.136;16.928;2023-06-14T06:47:54;1167.32;;;999.90;;
59474;SDS011;45288;51.136;16.928;2023-06-14T06:50:21;1160.65;;;999.90;;
59474;SDS011;45288;51.136;16.928;2023-06-14T06:52:49;1136.10;;;999.90;;
59474;SDS011;45288;51.136;16.928;2023-06-14T06:55:14;1144.70;;;999.90;;
59474;SDS011;45288;51.136;16.928;2023-06-14T06:57:40;1168.95;;;999.90;;
59474;SDS011;45288;51.136;16.928;2023-06-14T07:00:06;1145.60;;;999.90;;
59474;SDS011;45288;51.136;16.928;2023-06-14T07:02:35;1156.93;;;999.90;;
59474;SDS011;45288;51.136;16.928;2023-06-14T07:05:01;1147.63;;;999.90;;
59474;SDS011;45288;51.136;16.928;2023-06-14T07:07:27;1126.68;;;999.90;;
59474;SDS011;45288;51.136;16.928;2023-06-14T07:09:53;1121.73;;;999.90;;
59474;SDS011;45288;51.136;16.928;2023-06-14T07:12:18;1127.47;;;999.90;;
59474;SDS011;45288;51.136;16.928;2023-06-14T07:14:44;1122.17;;;999.90;;
59474;SDS011;45288;51.136;16.928;2023-06-14T07:17:10;1105.07;;;999.90;;
59474;SDS011;45288;51.136;16.928;2023-06-14T07:19:36;1111.30;;;999.90;;
59474;SDS011;45288;51.136;16.928;2023-06-14T07:22:02;1080.38;;;999.90;;
59474;SDS011;45288;51.136;16.928;2023-06-14T07:24:29;1086.60;;;999.90;;
59474;SDS011;45288;51.136;16.928;2023-06-14T07:26:54;1098.10;;;999.90;;
59474;SDS011;45288;51.136;16.928;2023-06-14T07:29:21;1083.88;;;999.90;;
59474;SDS011;45288;51.136;16.928;2023-06-14T07:31:47;1090.00;;;999.90;;
59474;SDS011;45288;51.136;16.928;2023-06-14T07:34:13;1076.03;;;999.77;;
59474;SDS011;45288;51.136;16.928;2023-06-14T07:36:38;1055.35;;;980.03;;
59474;SDS011;45288;51.136;16.928;2023-06-14T07:39:04;1063.73;;;988.40;;
59474;SDS011;45288;51.136;16.928;2023-06-14T07:41:32;1047.78;;;972.53;;
59474;SDS011;45288;51.136;16.928;2023-06-14T07:43:58;1058.95;;;983.80;;
59474;SDS011;45288;51.136;16.928;2023-06-14T07:46:23;975.25;;;904.35;;
59474;SDS011;45288;51.136;16.928;2023-06-14T07:48:49;1023.00;;;948.97;;
59474;SDS011;45288;51.136;16.928;2023-06-14T07:51:14;1065.87;;;989.73;;
59474;SDS011;45288;51.136;16.928;2023-06-14T07:53:40;1072.40;;;995.80;;
59474;SDS011;45288;51.136;16.928;2023-06-14T07:56:07;1084.68;;;999.90;;
59474;SDS011;45288;51.136;16.928;2023-06-14T07:58:33;1077.03;;;998.65;;
59474;SDS011;45288;51.136;16.928;2023-06-14T08:00:58;1033.30;;;959.33;;
59474;SDS011;45288;51.136;16.928;2023-06-14T08:03:26;1003.83;;;930.95;;
59474;SDS011;45288;51.136;16.928;2023-06-14T08:05:52;997.20;;;924.33;;
59474;SDS011;45288;51.136;16.928;2023-06-14T08:08:18;1008.97;;;935.33;;
59474;SDS011;45288;51.136;16.928;2023-06-14T08:10:44;1020.83;;;945.30;;
59474;SDS011;45288;51.136;16.928;2023-06-14T08:13:09;1033.55;;;959.15;;
59474;SDS011;45288;51.136;16.928;2023-06-14T08:15:35;1029.75;;;955.25;;
59474;SDS011;45288;51.136;16.928;2023-06-14T08:18:01;776.40;;;717.43;;
59474;SDS011;45288;51.136;16.928;2023-06-14T08:20:26;772.42;;;713.42;;
59474;SDS011;45288;51.136;16.928;2023-06-14T08:22:52;756.53;;;698.37;;
59474;SDS011;45288;51.136;16.928;2023-06-14T08:25:22;693.88;;;639.85;;
59474;SDS011;45288;51.136;16.928;2023-06-14T08:27:48;696.85;;;643.05;;
59474;SDS011;45288;51.136;16.928;2023-06-14T08:30:14;687.03;;;633.10;;
59474;SDS011;45288;51.136;16.928;2023-06-14T08:32:39;756.47;;;698.23;;
59474;SDS011;45288;51.136;16.928;2023-06-14T08:35:05;817.53;;;755.38;;
59474;SDS011;45288;51.136;16.928;2023-06-14T08:37:32;997.65;;;924.50;;
59474;SDS011;45288;51.136;16.928;2023-06-14T08:40:01;992.15;;;919.60;;
59474;SDS011;45288;51.136;16.928;2023-06-14T08:42:30;1015.80;;;941.47;;
59474;SDS011;45288;51.136;16.928;2023-06-14T08:44:57;709.40;;;654.53;;
59474;SDS011;45288;51.136;16.928;2023-06-14T08:47:23;789.17;;;728.67;;
59474;SDS011;45288;51.136;16.928;2023-06-14T08:49:51;824.67;;;761.15;;
59474;SDS011;45288;51.136;16.928;2023-06-14T08:52:19;767.58;;;708.15;;
59474;SDS011;45288;51.136;16.928;2023-06-14T08:54:45;853.33;;;788.50;;
59474;SDS011;45288;51.136;16.928;2023-06-14T08:57:14;1026.70;;;951.00;;
59474;SDS011;45288;51.136;16.928;2023-06-14T08:59:49;1214.33;;;999.90;;
59474;SDS011;45288;51.136;16.928;2023-06-14T09:02:17;1226.10;;;999.90;;
59474;SDS011;45288;51.136;16.928;2023-06-14T09:04:47;1219.50;;;999.90;;
59474;SDS011;45288;51.136;16.928;2023-06-14T09:07:15;1222.33;;;999.90;;
59474;SDS011;45288;51.136;16.928;2023-06-14T09:09:40;1215.28;;;999.90;;
59474;SDS011;45288;51.136;16.928;2023-06-14T09:12:08;1215.22;;;999.90;;
59474;SDS011;45288;51.136;16.928;2023-06-14T09:14:36;1130.05;;;999.90;;
59474;SDS011;45288;51.136;16.928;2023-06-14T09:17:04;1081.28;;;999.90;;
59474;SDS011;45288;51.136;16.928;2023-06-14T09:19:30;1067.88;;;989.38;;
59474;SDS011;45288;51.136;16.928;2023-06-14T09:21:56;1204.90;;;999.90;;
59474;SDS011;45288;51.136;16.928;2023-06-14T09:24:23;1147.53;;;999.90;;
59474;SDS011;45288;51.136;16.928;2023-06-14T09:26:50;1213.35;;;999.90;;
59474;SDS011;45288;51.136;16.928;2023-06-14T09:29:17;1208.18;;;999.90;;
59474;SDS011;45288;51.136;16.928;2023-06-14T09:31:45;1200.65;;;999.90;;
59474;SDS011;45288;51.136;16.928;2023-06-14T09:34:11;1224.45;;;999.90;;
59474;SDS011;45288;51.136;16.928;2023-06-14T09:36:37;1227.30;;;999.90;;
59474;SDS011;45288;51.136;16.928;2023-06-14T09:39:05;1226.47;;;999.90;;
59474;SDS011;45288;51.136;16.928;2023-06-14T09:41:31;1230.70;;;999.90;;
59474;SDS011;45288;51.136;16.928;2023-06-14T09:43:59;1220.45;;;999.90;;
59474;SDS011;45288;51.136;16.928;2023-06-14T09:46:29;1227.60;;;999.90;;
59474;SDS011;45288;51.136;16.928;2023-06-14T09:48:55;1211.35;;;999.90;;
59474;SDS011;45288;51.136;16.928;2023-06-14T09:51:22;1222.95;;;999.90;;
59474;SDS011;45288;51.136;16.928;2023-06-14T09:53:51;1186.80;;;999.90;;
59474;SDS011;45288;51.136;16.928;2023-06-14T09:56:29;1183.20;;;999.90;;
59474;SDS011;45288;51.136;16.928;2023-06-14T09:58:56;1214.35;;;999.90;;
59474;SDS011;45288;51.136;16.928;2023-06-14T10:01:26;1202.30;;;999.90;;
59474;SDS011;45288;51.136;16.928;2023-06-14T10:03:55;1208.45;;;999.90;;
59474;SDS011;45288;51.136;16.928;2023-06-14T10:06:21;1213.88;;;999.90;;
59474;SDS011;45288;51.136;16.928;2023-06-14T10:08:50;1160.43;;;999.90;;
59474;SDS011;45288;51.136;16.928;2023-06-14T10:11:17;1096.18;;;999.90;;
59474;SDS011;45288;51.136;16.928;2023-06-14T10:13:43;1110.43;;;999.90;;
59474;SDS011;45288;51.136;16.928;2023-06-14T10:19:25;1062.82;;;985.35;;
59474;SDS011;45288;51.136;16.928;2023-06-14T10:21:35;1010.83;;;936.13;;
59474;SDS011;45288;51.136;16.928;2023-06-14T10:24:05;920.25;;;851.95;;
59474;SDS011;45288;51.136;16.928;2023-06-14T10:26:32;899.28;;;831.58;;
59474;SDS011;45288;51.136;16.928;2023-06-14T10:28:59;876.30;;;810.20;;
59474;SDS011;45288;51.136;16.928;2023-06-14T10:31:43;889.00;;;821.57;;
59474;SDS011;45288;51.136;16.928;2023-06-14T10:34:10;839.97;;;775.50;;
59474;SDS011;45288;51.136;16.928;2023-06-14T10:36:35;841.67;;;777.15;;
59474;SDS011;45288;51.136;16.928;2023-06-14T10:41:31;851.45;;;785.92;;
59474;SDS011;45288;51.136;16.928;2023-06-14T10:46:38;1244.78;;;999.90;;
59474;SDS011;45288;51.136;16.928;2023-06-14T10:49:04;1243.47;;;999.90;;
59474;SDS011;45288;51.136;16.928;2023-06-14T10:51:44;1245.68;;;999.90;;
59474;SDS011;45288;51.136;16.928;2023-06-14T10:54:12;1238.13;;;999.90;;
59474;SDS011;45288;51.136;16.928;2023-06-14T10:56:48;1236.10;;;999.90;;
59474;SDS011;45288;51.136;16.928;2023-06-14T10:59:14;1237.18;;;999.90;;
59474;SDS011;45288;51.136;16.928;2023-06-14T11:01:41;1238.45;;;999.90;;
59474;SDS011;45288;51.136;16.928;2023-06-14T11:04:11;1237.35;;;999.90;;
59474;SDS011;45288;51.136;16.928;2023-06-14T11:11:55;1231.30;;;999.90;;
59474;SDS011;45288;51.136;16.928;2023-06-14T11:14:21;1243.47;;;999.90;;
59474;SDS011;45288;51.136;16.928;2023-06-14T11:16:47;1238.40;;;999.90;;
59474;SDS011;45288;51.136;16.928;2023-06-14T11:19:13;1238.68;;;999.90;;
59474;SDS011;45288;51.136;16.928;2023-06-14T11:21:42;1233.50;;;999.90;;
59474;SDS011;45288;51.136;16.928;2023-06-14T11:24:11;1239.95;;;999.90;;
59474;SDS011;45288;51.136;16.928;2023-06-14T11:26:37;1242.47;;;999.90;;
59474;SDS011;45288;51.136;16.928;2023-06-14T11:29:03;1240.97;;;999.90;;
59474;SDS011;45288;51.136;16.928;2023-06-14T11:31:29;1248.40;;;999.90;;
59474;SDS011;45288;51.136;16.928;2023-06-14T11:33:55;1249.10;;;999.90;;
59474;SDS011;45288;51.136;16.928;2023-06-14T11:36:22;1253.63;;;999.90;;
59474;SDS011;45288;51.136;16.928;2023-06-14T11:38:48;1243.30;;;999.90;;
59474;SDS011;45288;51.136;16.928;2023-06-14T11:41:14;1143.57;;;999.90;;
59474;SDS011;45288;51.136;16.928;2023-06-14T11:43:39;1243.00;;;999.90;;
59474;SDS011;45288;51.136;16.928;2023-06-14T11:46:12;1235.68;;;999.90;;
59474;SDS011;45288;51.136;16.928;2023-06-14T11:48:38;1241.13;;;999.90;;
59474;SDS011;45288;51.136;16.928;2023-06-14T11:51:06;1239.25;;;999.90;;
59474;SDS011;45288;51.136;16.928;2023-06-14T11:53:32;1084.00;;;999.90;;
59474;SDS011;45288;51.136;16.928;2023-06-14T11:55:58;1222.20;;;999.90;;
59474;SDS011;45288;51.136;16.928;2023-06-14T11:58:24;1240.20;;;999.90;;
59474;SDS011;45288;51.136;16.928;2023-06-14T12:00:50;1238.25;;;999.90;;
59474;SDS011;45288;51.136;16.928;2023-06-14T12:03:16;1235.23;;;999.90;;
59474;SDS011;45288;51.136;16.928;2023-06-14T12:05:42;1240.40;;;999.90;;
59474;SDS011;45288;51.136;16.928;2023-06-14T12:08:07;1235.57;;;999.90;;
59474;SDS011;45288;51.136;16.928;2023-06-14T12:10:42;1214.15;;;999.90;;
59474;SDS011;45288;51.136;16.928;2023-06-14T12:13:27;1198.87;;;999.90;;
59474;SDS011;45288;51.136;16.928;2023-06-14T12:15:56;1215.97;;;999.90;;
59474;SDS011;45288;51.136;16.928;2023-06-14T12:18:31;1163.78;;;999.90;;
59474;SDS011;45288;51.136;16.928;2023-06-14T12:20:58;1078.72;;;999.25;;
59474;SDS011;45288;51.136;16.928;2023-06-14T12:23:38;969.20;;;896.63;;
59474;SDS011;45288;51.136;16.928;2023-06-14T12:26:04;970.33;;;897.60;;
59474;SDS011;45288;51.136;16.928;2023-06-14T12:28:31;970.17;;;896.80;;
59474;SDS011;45288;51.136;16.928;2023-06-14T12:30:56;947.35;;;876.03;;
59474;SDS011;45288;51.136;16.928;2023-06-14T12:33:24;932.65;;;862.40;;
59474;SDS011;45288;51.136;16.928;2023-06-14T12:35:50;846.03;;;781.30;;
59474;SDS011;45288;51.136;16.928;2023-06-14T12:38:15;883.65;;;816.13;;
59474;SDS011;45288;51.136;16.928;2023-06-14T12:40:42;786.90;;;726.08;;
59474;SDS011;45288;51.136;16.928;2023-06-14T12:43:08;960.13;;;887.93;;
59474;SDS011;45288;51.136;16.928;2023-06-14T12:45:33;925.63;;;855.58;;
59474;SDS011;45288;51.136;16.928;2023-06-14T12:47:59;808.23;;;745.50;;
59474;SDS011;45288;51.136;16.928;2023-06-14T12:50:24;924.72;;;854.15;;
59474;SDS011;45288;51.136;16.928;2023-06-14T12:52:50;814.77;;;752.17;;
59474;SDS011;45288;51.136;16.928;2023-06-14T12:55:16;814.25;;;751.72;;
59474;SDS011;45288;51.136;16.928;2023-06-14T12:57:42;886.35;;;818.58;;
59474;SDS011;45288;51.136;16.928;2023-06-14T13:00:07;867.20;;;801.73;;
59474;SDS011;45288;51.136;16.928;2023-06-14T13:02:33;867.28;;;801.13;;
59474;SDS011;45288;51.136;16.928;2023-06-14T13:04:59;865.65;;;800.28;;
59474;SDS011;45288;51.136;16.928;2023-06-14T13:07:26;711.28;;;655.42;;
59474;SDS011;45288;51.136;16.928;2023-06-14T13:09:51;871.23;;;804.83;;
59474;SDS011;45288;51.136;16.928;2023-06-14T13:12:17;774.75;;;715.10;;
59474;SDS011;45288;51.136;16.928;2023-06-14T13:14:43;645.40;;;594.23;;
59474;SDS011;45288;51.136;16.928;2023-06-14T13:17:09;643.55;;;593.03;;
59474;SDS011;45288;51.136;16.928;2023-06-14T13:19:35;684.58;;;630.78;;
59474;SDS011;45288;51.136;16.928;2023-06-14T13:22:00;694.07;;;639.57;;
59474;SDS011;45288;51.136;16.928;2023-06-14T13:24:26;676.95;;;622.88;;
59474;SDS011;45288;51.136;16.928;2023-06-14T13:26:54;664.70;;;612.22;;
59474;SDS011;45288;51.136;16.928;2023-06-14T13:29:20;650.85;;;598.97;;
59474;SDS011;45288;51.136;16.928;2023-06-14T13:31:46;588.22;;;541.83;;
59474;SDS011;45288;51.136;16.928;2023-06-14T13:34:12;621.63;;;571.93;;
59474;SDS011;45288;51.136;16.928;2023-06-14T13:36:38;669.40;;;615.78;;
59474;SDS011;45288;51.136;16.928;2023-06-14T13:39:04;661.55;;;608.90;;
59474;SDS011;45288;51.136;16.928;2023-06-14T13:41:30;669.35;;;615.55;;
59474;SDS011;45288;51.136;16.928;2023-06-14T13:43:59;647.08;;;595.28;;
59474;SDS011;45288;51.136;16.928;2023-06-14T13:46:25;638.03;;;587.30;;
59474;SDS011;45288;51.136;16.928;2023-06-14T13:48:51;528.73;;;487.13;;
59474;SDS011;45288;51.136;16.928;2023-06-14T13:51:17;624.60;;;574.78;;
59474;SDS011;45288;51.136;16.928;2023-06-14T13:53:50;657.28;;;605.35;;
59474;SDS011;45288;51.136;16.928;2023-06-14T13:56:16;652.37;;;600.00;;